sensor_id;sensor_type;location;lat;lon;timestamp;pressure;altitude;pressure_sealevel;temperature;humidity
69574;BME280;62840;52.366;5.980;2023-08-31T00:02:04;100673.56;;;12.67;70.84
69574;BME280;62840;52.366;5.980;2023-08-31T00:04:30;100673.28;;;12.70;70.82
69574;BME280;62840;52.366;5.980;2023-08-31T00:06:56;100666.94;;;12.71;70.74
69574;BME280;62840;52.366;5.980;2023-08-31T00:09:22;100666.78;;;12.73;70.99
69574;BME280;62840;52.366;5.980;2023-08-31T00:11:50;100663.97;;;12.74;70.94
69574;BME280;62840;52.366;5.980;2023-08-31T00:14:16;100660.28;;;12.75;70.88
69574;BME280;62840;52.366;5.980;2023-08-31T00:16:43;100657.47;;;12.77;71.10
69574;BME280;62840;52.366;5.980;2023-08-31T00:19:08;100661.69;;;12.80;70.89
69574;BME280;62840;52.366;5.980;2023-08-31T00:21:34;100661.69;;;12.80;71.05
69574;BME280;62840;52.366;5.980;2023-08-31T00:24:00;100664.25;;;12.81;70.94
69574;BME280;62840;52.366;5.980;2023-08-31T00:26:26;100656.06;;;12.83;71.09
69574;BME280;62840;52.366;5.980;2023-08-31T00:28:56;100660.28;;;12.85;71.01
69574;BME280;62840;52.366;5.980;2023-08-31T00:31:22;100661.13;;;12.86;71.37
69574;BME280;62840;52.366;5.980;2023-08-31T00:33:48;100652.09;;;12.87;71.27
69574;BME280;62840;52.366;5.980;2023-08-31T00:36:14;100659.97;;;12.88;71.03
69574;BME280;62840;52.366;5.980;2023-08-31T00:38:40;100662.53;;;12.90;71.25
69574;BME280;62840;52.366;5.980;2023-08-31T00:41:05;100664.06;;;12.92;71.10
69574;BME280;62840;52.366;5.980;2023-08-31T00:43:31;100663.91;;;12.94;71.03
69574;BME280;62840;52.366;5.980;2023-08-31T00:45:59;100662.22;;;12.93;71.11
69574;BME280;62840;52.366;5.980;2023-08-31T00:48:26;100665.59;;;12.95;71.13
69574;BME280;62840;52.366;5.980;2023-08-31T00:50:52;100665.44;;;12.97;71.13
69574;BME280;62840;52.366;5.980;2023-08-31T00:53:17;100668.97;;;12.97;71.37
69574;BME280;62840;52.366;5.980;2023-08-31T00:55:44;100668.97;;;12.97;71.21
69574;BME280;62840;52.366;5.980;2023-08-31T00:58:10;100672.66;;;12.96;71.09
69574;BME280;62840;52.366;5.980;2023-08-31T01:00:53;100690.38;;;12.97;71.54
69574;BME280;62840;52.366;5.980;2023-08-31T01:03:36;100699.41;;;12.96;71.34
69574;BME280;62840;52.366;5.980;2023-08-31T01:06:13;100697.41;;;12.98;71.66
69574;BME280;62840;52.366;5.980;2023-08-31T01:08:52;100708.13;;;12.98;71.45
69574;BME280;62840;52.366;5.980;2023-08-31T01:11:29;100695.59;;;12.99;71.47
69574;BME280;62840;52.366;5.980;2023-08-31T01:14:02;100702.50;;;13.01;71.66
69574;BME280;62840;52.366;5.980;2023-08-31T01:16:39;100695.16;;;13.03;71.77
69574;BME280;62840;52.366;5.980;2023-08-31T01:19:16;100704.16;;;13.02;71.53
69574;BME280;62840;52.366;5.980;2023-08-31T01:22:00;100694.16;;;13.04;71.96
69574;BME280;62840;52.366;5.980;2023-08-31T01:24:34;100683.44;;;13.04;71.77
69574;BME280;62840;52.366;5.980;2023-08-31T01:27:00;100680.78;;;13.04;72.05
69574;BME280;62840;52.366;5.980;2023-08-31T01:29:29;100673.44;;;13.06;71.96
69574;BME280;62840;52.366;5.980;2023-08-31T01:31:55;100668.09;;;13.06;72.19
69574;BME280;62840;52.366;5.980;2023-08-31T01:34:21;100662.72;;;13.06;72.06
69574;BME280;62840;52.366;5.980;2023-08-31T01:36:50;100649.34;;;13.06;72.12
69574;BME280;62840;52.366;5.980;2023-08-31T01:39:27;100658.06;;;13.08;72.00
69574;BME280;62840;52.366;5.980;2023-08-31T01:42:03;100657.94;;;13.10;72.13
69574;BME280;62840;52.366;5.980;2023-08-31T01:44:31;100664.97;;;13.11;71.80
69574;BME280;62840;52.366;5.980;2023-08-31T01:47:02;100662.41;;;13.09;72.01
69574;BME280;62840;52.366;5.980;2023-08-31T01:49:35;100662.41;;;13.09;71.91
69574;BME280;62840;52.366;5.980;2023-08-31T01:52:01;100649.03;;;13.09;71.90
69574;BME280;62840;52.366;5.980;2023-08-31T01:54:27;100646.34;;;13.09;72.01
69574;BME280;62840;52.366;5.980;2023-08-31T01:56:53;100650.03;;;13.08;72.14
69574;BME280;62840;52.366;5.980;2023-08-31T01:59:21;100657.25;;;13.08;71.80
69574;BME280;62840;52.366;5.980;2023-08-31T02:01:47;100656.41;;;13.07;71.79
69574;BME280;62840;52.366;5.980;2023-08-31T02:04:13;100652.03;;;13.06;71.91
69574;BME280;62840;52.366;5.980;2023-08-31T02:06:38;100655.69;;;13.05;72.00
69574;BME280;62840;52.366;5.980;2023-08-31T02:09:04;100649.66;;;13.03;71.72
69574;BME280;62840;52.366;5.980;2023-08-31T02:11:30;100651.50;;;13.03;71.91
69574;BME280;62840;52.366;5.980;2023-08-31T02:13:56;100650.78;;;13.01;72.18
69574;BME280;62840;52.366;5.980;2023-08-31T02:16:25;100642.91;;;12.99;72.21
69574;BME280;62840;52.366;5.980;2023-08-31T02:18:51;100649.22;;;12.98;71.97
69574;BME280;62840;52.366;5.980;2023-08-31T02:21:16;100651.75;;;13.00;72.01
69574;BME280;62840;52.366;5.980;2023-08-31T02:23:42;100653.75;;;12.98;72.09
69574;BME280;62840;52.366;5.980;2023-08-31T02:26:08;100654.56;;;12.98;72.12
69574;BME280;62840;52.366;5.980;2023-08-31T02:28:33;100648.56;;;12.96;72.09
69574;BME280;62840;52.366;5.980;2023-08-31T02:31:02;100654.88;;;12.95;71.95
69574;BME280;62840;52.366;5.980;2023-08-31T02:33:30;100645.19;;;12.94;71.92
69574;BME280;62840;52.366;5.980;2023-08-31T02:35:56;100646.16;;;12.93;71.91
69574;BME280;62840;52.366;5.980;2023-08-31T02:38:22;100648.13;;;12.91;72.22
69574;BME280;62840;52.366;5.980;2023-08-31T02:40:48;100646.47;;;12.90;72.06
69574;BME280;62840;52.366;5.980;2023-08-31T02:43:15;100644.75;;;12.89;72.05
69574;BME280;62840;52.366;5.980;2023-08-31T02:45:40;100644.75;;;12.89;72.26
69574;BME280;62840;52.366;5.980;2023-08-31T02:48:07;100646.72;;;12.87;71.92
69574;BME280;62840;52.366;5.980;2023-08-31T02:50:36;100653.78;;;12.88;72.10
69574;BME280;62840;52.366;5.980;2023-08-31T02:53:03;100646.72;;;12.87;72.35
69574;BME280;62840;52.366;5.980;2023-08-31T02:55:32;100653.09;;;12.86;71.98
69574;BME280;62840;52.366;5.980;2023-08-31T02:57:59;100649.56;;;12.85;72.06
69574;BME280;62840;52.366;5.980;2023-08-31T03:00:25;100647.03;;;12.84;72.23
69574;BME280;62840;52.366;5.980;2023-08-31T03:02:50;100647.03;;;12.84;72.28
69574;BME280;62840;52.366;5.980;2023-08-31T03:05:16;100650.72;;;12.83;72.30
69574;BME280;62840;52.366;5.980;2023-08-31T03:07:44;100649.84;;;12.82;72.05
69574;BME280;62840;52.366;5.980;2023-08-31T03:10:10;100653.53;;;12.81;72.21
69574;BME280;62840;52.366;5.980;2023-08-31T03:12:36;100658.03;;;12.81;72.17
69574;BME280;62840;52.366;5.980;2023-08-31T03:15:02;100649.16;;;12.80;72.17
69574;BME280;62840;52.366;5.980;2023-08-31T03:17:28;100651.00;;;12.80;72.28
69574;BME280;62840;52.366;5.980;2023-08-31T03:19:53;100645.63;;;12.80;72.30
69574;BME280;62840;52.366;5.980;2023-08-31T03:22:19;100653.66;;;12.80;72.29
69574;BME280;62840;52.366;5.980;2023-08-31T03:24:47;100651.00;;;12.80;72.23
69574;BME280;62840;52.366;5.980;2023-08-31T03:27:13;100651.28;;;12.77;72.24
69574;BME280;62840;52.366;5.980;2023-08-31T03:29:39;100643.41;;;12.75;72.19
69574;BME280;62840;52.366;5.980;2023-08-31T03:32:05;100642.56;;;12.74;72.32
69574;BME280;62840;52.366;5.980;2023-08-31T03:34:31;100649.88;;;12.72;72.29
69574;BME280;62840;52.366;5.980;2023-08-31T03:36:57;100653.56;;;12.71;72.43
69574;BME280;62840;52.366;5.980;2023-08-31T03:39:23;100649.31;;;12.69;72.37
69574;BME280;62840;52.366;5.980;2023-08-31T03:41:52;100658.34;;;12.68;72.50
69574;BME280;62840;52.366;5.980;2023-08-31T03:44:17;100657.53;;;12.67;72.52
69574;BME280;62840;52.366;5.980;2023-08-31T03:46:43;100646.81;;;12.67;72.44
69574;BME280;62840;52.366;5.980;2023-08-31T03:49:09;100647.78;;;12.66;72.41
69574;BME280;62840;52.366;5.980;2023-08-31T03:51:35;100648.78;;;12.65;72.53
69574;BME280;62840;52.366;5.980;2023-08-31T03:54:01;100641.75;;;12.64;72.60
69574;BME280;62840;52.366;5.980;2023-08-31T03:56:27;100654.16;;;12.65;72.26
69574;BME280;62840;52.366;5.980;2023-08-31T03:58:55;100659.50;;;12.65;72.46
69574;BME280;62840;52.366;5.980;2023-08-31T04:01:20;100664.84;;;12.65;72.38
69574;BME280;62840;52.366;5.980;2023-08-31T04:03:46;100657.78;;;12.64;72.53
69574;BME280;62840;52.366;5.980;2023-08-31T04:06:12;100661.47;;;12.63;72.59
69574;BME280;62840;52.366;5.980;2023-08-31T04:08:38;100667.81;;;12.62;72.63
69574;BME280;62840;52.366;5.980;2023-08-31T04:11:03;100674.84;;;12.63;72.82
69574;BME280;62840;52.366;5.980;2023-08-31T04:13:29;100680.91;;;12.65;72.53
69574;BME280;62840;52.366;5.980;2023-08-31T04:15:57;100686.25;;;12.65;72.61
69574;BME280;62840;52.366;5.980;2023-08-31T04:18:23;100692.44;;;12.66;72.70
69574;BME280;62840;52.366;5.980;2023-08-31T04:20:50;100690.59;;;12.66;72.61
69574;BME280;62840;52.366;5.980;2023-08-31T04:23:16;100697.66;;;12.67;72.60
69574;BME280;62840;52.366;5.980;2023-08-31T04:25:42;100695.50;;;12.71;72.80
69574;BME280;62840;52.366;5.980;2023-08-31T04:28:08;100698.06;;;12.72;73.01
69574;BME280;62840;52.366;5.980;2023-08-31T04:30:33;100686.22;;;12.75;72.79
69574;BME280;62840;52.366;5.980;2023-08-31T04:33:02;100688.06;;;12.74;72.82
69574;BME280;62840;52.366;5.980;2023-08-31T04:35:28;100686.78;;;12.79;72.69
69574;BME280;62840;52.366;5.980;2023-08-31T04:37:54;100700.88;;;12.81;72.77
69574;BME280;62840;52.366;5.980;2023-08-31T04:40:19;100686.47;;;12.82;73.00
69574;BME280;62840;52.366;5.980;2023-08-31T04:42:45;100683.53;;;12.85;72.92
69574;BME280;62840;52.366;5.980;2023-08-31T04:45:11;100687.88;;;12.86;73.02
69574;BME280;62840;52.366;5.980;2023-08-31T04:47:36;100678.84;;;12.87;72.90
69574;BME280;62840;52.366;5.980;2023-08-31T04:50:06;100685.91;;;12.88;73.07
69574;BME280;62840;52.366;5.980;2023-08-31T04:52:33;100692.22;;;12.87;72.73
69574;BME280;62840;52.366;5.980;2023-08-31T04:55:00;100689.28;;;12.90;72.94
69574;BME280;62840;52.366;5.980;2023-08-31T04:57:27;100692.94;;;12.89;72.90
69574;BME280;62840;52.366;5.980;2023-08-31T04:59:52;100692.94;;;12.89;73.07
69574;BME280;62840;52.366;5.980;2023-08-31T05:02:18;100687.59;;;12.89;73.07
69574;BME280;62840;52.366;5.980;2023-08-31T05:04:44;100692.94;;;12.89;72.96
69574;BME280;62840;52.366;5.980;2023-08-31T05:07:12;100698.28;;;12.89;72.75
69574;BME280;62840;52.366;5.980;2023-08-31T05:09:38;100704.34;;;12.91;73.04
69574;BME280;62840;52.366;5.980;2023-08-31T05:12:04;100707.03;;;12.91;72.82
69574;BME280;62840;52.366;5.980;2023-08-31T05:14:31;100707.72;;;12.93;72.99
69574;BME280;62840;52.366;5.980;2023-08-31T05:16:56;100712.09;;;12.94;72.96
69574;BME280;62840;52.366;5.980;2023-08-31T05:19:22;100706.75;;;12.94;73.04
69574;BME280;62840;52.366;5.980;2023-08-31T05:21:48;100715.47;;;12.96;73.21
69574;BME280;62840;52.366;5.980;2023-08-31T05:24:16;100719.69;;;12.99;72.97
69574;BME280;62840;52.366;5.980;2023-08-31T05:26:42;100720.53;;;12.99;73.14
69574;BME280;62840;52.366;5.980;2023-08-31T05:29:07;100718.81;;;12.98;72.99
69574;BME280;62840;52.366;5.980;2023-08-31T05:31:33;100721.38;;;13.00;72.99
69574;BME280;62840;52.366;5.980;2023-08-31T05:33:59;100730.94;;;13.02;73.34
69574;BME280;62840;52.366;5.980;2023-08-31T05:36:24;100729.25;;;13.01;73.28
69574;BME280;62840;52.366;5.980;2023-08-31T05:38:51;100725.59;;;13.02;73.36
69574;BME280;62840;52.366;5.980;2023-08-31T05:41:19;100721.09;;;13.03;73.31
69574;BME280;62840;52.366;5.980;2023-08-31T05:43:45;100725.44;;;13.04;73.33
69574;BME280;62840;52.366;5.980;2023-08-31T05:46:10;100730.66;;;13.05;73.25
69574;BME280;62840;52.366;5.980;2023-08-31T05:48:36;100728.69;;;13.07;73.41
69574;BME280;62840;52.366;5.980;2023-08-31T05:51:02;100736.56;;;13.09;73.31
69574;BME280;62840;52.366;5.980;2023-08-31T05:53:28;100739.09;;;13.10;73.50
69574;BME280;62840;52.366;5.980;2023-08-31T05:55:55;100743.44;;;13.11;73.38
69574;BME280;62840;52.366;5.980;2023-08-31T05:58:23;100744.84;;;13.15;73.40
69574;BME280;62840;52.366;5.980;2023-08-31T06:00:49;100742.03;;;13.17;73.76
69574;BME280;62840;52.366;5.980;2023-08-31T06:03:14;100741.59;;;13.22;73.77
69574;BME280;62840;52.366;5.980;2023-08-31T06:05:40;100748.50;;;13.24;73.59
69574;BME280;62840;52.366;5.980;2023-08-31T06:08:06;100754.41;;;13.28;73.70
69574;BME280;62840;52.366;5.980;2023-08-31T06:10:31;100754.25;;;13.29;73.92
69574;BME280;62840;52.366;5.980;2023-08-31T06:12:57;100749.44;;;13.33;73.87
69574;BME280;62840;52.366;5.980;2023-08-31T06:15:25;100767.88;;;13.36;73.78
69574;BME280;62840;52.366;5.980;2023-08-31T06:17:51;100764.25;;;13.37;73.83
69574;BME280;62840;52.366;5.980;2023-08-31T06:20:17;100775.66;;;13.39;73.69
69574;BME280;62840;52.366;5.980;2023-08-31T06:22:43;100775.34;;;13.42;73.75
69574;BME280;62840;52.366;5.980;2023-08-31T06:25:08;100785.75;;;13.45;73.67
69574;BME280;62840;52.366;5.980;2023-08-31T06:27:34;100780.13;;;13.48;74.01
69574;BME280;62840;52.366;5.980;2023-08-31T06:30:00;100790.53;;;13.51;74.02
69574;BME280;62840;52.366;5.980;2023-08-31T06:32:28;100798.31;;;13.54;73.73
69574;BME280;62840;52.366;5.980;2023-08-31T06:34:54;100794.50;;;13.57;73.83
69574;BME280;62840;52.366;5.980;2023-08-31T06:37:19;100785.31;;;13.60;73.91
69574;BME280;62840;52.366;5.980;2023-08-31T06:39:45;100785.84;;;13.63;74.20
69574;BME280;62840;52.366;5.980;2023-08-31T06:42:11;100786.41;;;13.67;74.30
69574;BME280;62840;52.366;5.980;2023-08-31T06:44:36;100785.13;;;13.71;74.39
69574;BME280;62840;52.366;5.980;2023-08-31T06:47:02;100793.69;;;13.74;74.38
69574;BME280;62840;52.366;5.980;2023-08-31T06:49:31;100796.09;;;13.77;74.23
69574;BME280;62840;52.366;5.980;2023-08-31T06:51:56;100802.00;;;13.81;74.38
69574;BME280;62840;52.366;5.980;2023-08-31T06:54:22;100799.03;;;13.84;74.33
69574;BME280;62840;52.366;5.980;2023-08-31T06:56:48;100801.72;;;13.84;74.10
69574;BME280;62840;52.366;5.980;2023-08-31T06:59:14;100801.53;;;13.86;74.40
69574;BME280;62840;52.366;5.980;2023-08-31T07:01:39;100796.03;;;13.87;74.10
69574;BME280;62840;52.366;5.980;2023-08-31T07:04:05;100802.25;;;13.88;74.12
69574;BME280;62840;52.366;5.980;2023-08-31T07:06:35;100810.97;;;13.90;74.11
69574;BME280;62840;52.366;5.980;2023-08-31T07:09:01;100814.50;;;13.90;74.06
69574;BME280;62840;52.366;5.980;2023-08-31T07:11:26;100816.19;;;13.91;74.21
69574;BME280;62840;52.366;5.980;2023-08-31T07:13:52;100819.72;;;13.92;74.04
69574;BME280;62840;52.366;5.980;2023-08-31T07:16:18;100824.94;;;13.93;74.05
69574;BME280;62840;52.366;5.980;2023-08-31T07:18:44;100820.28;;;13.95;73.98
69574;BME280;62840;52.366;5.980;2023-08-31T07:21:09;100829.16;;;13.96;74.10
69574;BME280;62840;52.366;5.980;2023-08-31T07:23:38;100823.66;;;13.97;74.13
69574;BME280;62840;52.366;5.980;2023-08-31T07:26:03;100827.03;;;13.99;74.12
69574;BME280;62840;52.366;5.980;2023-08-31T07:28:29;100824.19;;;14.01;73.99
69574;BME280;62840;52.366;5.980;2023-08-31T07:31:01;100824.03;;;14.03;74.35
69574;BME280;62840;52.366;5.980;2023-08-31T07:33:27;100824.03;;;14.03;74.33
69574;BME280;62840;52.366;5.980;2023-08-31T07:35:53;100830.09;;;14.05;74.22
69574;BME280;62840;52.366;5.980;2023-08-31T07:38:19;100831.50;;;14.09;74.14
69574;BME280;62840;52.366;5.980;2023-08-31T07:40:47;100824.97;;;14.11;74.08
69574;BME280;62840;52.366;5.980;2023-08-31T07:43:13;100828.88;;;14.17;74.16
69574;BME280;62840;52.366;5.980;2023-08-31T07:45:38;100832.25;;;14.19;74.23
69574;BME280;62840;52.366;5.980;2023-08-31T07:48:04;100837.34;;;14.22;74.42
69574;BME280;62840;52.366;5.980;2023-08-31T07:50:30;100832.50;;;14.26;74.44
69574;BME280;62840;52.366;5.980;2023-08-31T07:52:56;100832.06;;;14.30;74.45
69574;BME280;62840;52.366;5.980;2023-08-31T07:55:22;100839.81;;;14.33;74.37
69574;BME280;62840;52.366;5.980;2023-08-31T07:57:50;100844.72;;;14.38;74.45
69574;BME280;62840;52.366;5.980;2023-08-31T08:00:17;100835.22;;;14.44;74.59
69574;BME280;62840;52.366;5.980;2023-08-31T08:02:45;100841.97;;;14.48;74.30
69574;BME280;62840;52.366;5.980;2023-08-31T08:05:11;100847.03;;;14.51;74.51
69574;BME280;62840;52.366;5.980;2023-08-31T08:07:36;100847.56;;;14.54;74.14
69574;BME280;62840;52.366;5.980;2023-08-31T08:10:02;100856.00;;;14.59;74.22
69574;BME280;62840;52.366;5.980;2023-08-31T08:12:36;100851.19;;;14.63;74.71
69574;BME280;62840;52.366;5.980;2023-08-31T08:15:06;100864.97;;;14.68;74.82
69574;BME280;62840;52.366;5.980;2023-08-31T08:17:32;100864.69;;;14.71;74.68
69574;BME280;62840;52.366;5.980;2023-08-31T08:19:58;100867.78;;;14.76;74.98
69574;BME280;62840;52.366;5.980;2023-08-31T08:22:24;100871.16;;;14.78;74.62
69574;BME280;62840;52.366;5.980;2023-08-31T08:24:50;100869.13;;;14.80;74.78
69574;BME280;62840;52.366;5.980;2023-08-31T08:27:16;100870.69;;;14.83;74.83
69574;BME280;62840;52.366;5.980;2023-08-31T08:29:42;100870.53;;;14.85;74.78
69574;BME280;62840;52.366;5.980;2023-08-31T08:32:10;100881.94;;;14.87;74.69
69574;BME280;62840;52.366;5.980;2023-08-31T08:34:36;100879.13;;;14.88;74.85
69574;BME280;62840;52.366;5.980;2023-08-31T08:37:02;100880.66;;;14.91;74.72
69574;BME280;62840;52.366;5.980;2023-08-31T08:39:28;100885.69;;;14.94;74.90
69574;BME280;62840;52.366;5.980;2023-08-31T08:41:54;100878.34;;;14.96;75.04
69574;BME280;62840;52.366;5.980;2023-08-31T08:44:24;100876.34;;;14.98;74.89
69574;BME280;62840;52.366;5.980;2023-08-31T08:46:52;100879.72;;;15.00;74.76
69574;BME280;62840;52.366;5.980;2023-08-31T08:49:21;100878.56;;;15.02;74.66
69574;BME280;62840;52.366;5.980;2023-08-31T08:51:49;100884.78;;;15.03;74.81
69574;BME280;62840;52.366;5.980;2023-08-31T08:54:15;100883.09;;;15.02;74.91
69574;BME280;62840;52.366;5.980;2023-08-31T08:56:42;100882.78;;;15.05;74.57
69574;BME280;62840;52.366;5.980;2023-08-31T08:59:08;100879.25;;;15.05;74.78
69574;BME280;62840;52.366;5.980;2023-08-31T09:01:34;100882.50;;;15.08;75.00
69574;BME280;62840;52.366;5.980;2023-08-31T09:04:01;100882.16;;;15.11;74.98
69574;BME280;62840;52.366;5.980;2023-08-31T09:06:29;100884.25;;;15.17;74.95
69574;BME280;62840;52.366;5.980;2023-08-31T09:08:55;100887.28;;;15.22;74.89
69574;BME280;62840;52.366;5.980;2023-08-31T09:11:22;100884.00;;;15.29;74.70
69574;BME280;62840;52.366;5.980;2023-08-31T09:13:49;100884.34;;;15.34;74.91
69574;BME280;62840;52.366;5.980;2023-08-31T09:16:23;100893.78;;;15.38;74.50
69574;BME280;62840;52.366;5.980;2023-08-31T09:18:49;100897.16;;;15.40;75.13
69574;BME280;62840;52.366;5.980;2023-08-31T09:21:15;100897.53;;;15.45;74.96
69574;BME280;62840;52.366;5.980;2023-08-31T09:23:46;100897.06;;;15.50;75.00
69574;BME280;62840;52.366;5.980;2023-08-31T09:26:13;100900.09;;;15.55;75.19
69574;BME280;62840;52.366;5.980;2023-08-31T09:28:40;100900.31;;;15.61;75.52
69574;BME280;62840;52.366;5.980;2023-08-31T09:31:07;100907.06;;;15.65;74.67
69574;BME280;62840;52.366;5.980;2023-08-31T09:33:34;100919.19;;;15.70;74.79
69574;BME280;62840;52.366;5.980;2023-08-31T09:36:00;100922.91;;;15.69;74.82
69574;BME280;62840;52.366;5.980;2023-08-31T09:38:26;100928.28;;;15.69;74.38
69574;BME280;62840;52.366;5.980;2023-08-31T09:41:03;100921.19;;;15.68;74.46
69574;BME280;62840;52.366;5.980;2023-08-31T09:43:29;100932.28;;;15.64;74.17
69574;BME280;62840;52.366;5.980;2023-08-31T09:45:55;100923.53;;;15.62;74.12
69574;BME280;62840;52.366;5.980;2023-08-31T09:48:22;100927.53;;;15.58;74.21
69574;BME280;62840;52.366;5.980;2023-08-31T09:50:48;100927.84;;;15.55;74.53
69574;BME280;62840;52.366;5.980;2023-08-31T09:53:16;100926.16;;;15.54;74.22
69574;BME280;62840;52.366;5.980;2023-08-31T09:55:47;100927.16;;;15.53;74.12
69574;BME280;62840;52.366;5.980;2023-08-31T09:58:18;100923.66;;;15.53;74.22
69574;BME280;62840;52.366;5.980;2023-08-31T10:00:45;100928.16;;;15.52;74.51
69574;BME280;62840;52.366;5.980;2023-08-31T10:03:14;100921.63;;;15.55;74.61
69574;BME280;62840;52.366;5.980;2023-08-31T10:05:40;100927.53;;;15.58;74.38
69574;BME280;62840;52.366;5.980;2023-08-31T10:08:06;100937.13;;;15.61;74.74
69574;BME280;62840;52.366;5.980;2023-08-31T10:10:33;100936.81;;;15.64;74.71
69574;BME280;62840;52.366;5.980;2023-08-31T10:13:01;100930.28;;;15.67;74.93
69574;BME280;62840;52.366;5.980;2023-08-31T10:15:34;100954.31;;;15.68;74.62
69574;BME280;62840;52.366;5.980;2023-08-31T10:18:01;100951.47;;;15.70;74.76
69574;BME280;62840;52.366;5.980;2023-08-31T10:20:29;100935.66;;;15.67;75.02
69574;BME280;62840;52.366;5.980;2023-08-31T10:22:56;100943.03;;;15.64;74.82
69574;BME280;62840;52.366;5.980;2023-08-31T10:25:25;100938.66;;;15.63;74.32
69574;BME280;62840;52.366;5.980;2023-08-31T10:27:50;100938.66;;;15.63;74.80
69574;BME280;62840;52.366;5.980;2023-08-31T10:30:25;100935.97;;;15.63;74.63
69574;BME280;62840;52.366;5.980;2023-08-31T10:33:24;100931.28;;;15.65;74.81
69574;BME280;62840;52.366;5.980;2023-08-31T10:35:53;100934.97;;;15.64;75.01
69574;BME280;62840;52.366;5.980;2023-08-31T10:38:25;100939.34;;;15.65;74.92
69574;BME280;62840;52.366;5.980;2023-08-31T10:41:17;100936.16;;;15.70;75.01
69574;BME280;62840;52.366;5.980;2023-08-31T10:43:45;100938.56;;;15.73;74.96
69574;BME280;62840;52.366;5.980;2023-08-31T10:46:18;100929.00;;;15.79;75.07
69574;BME280;62840;52.366;5.980;2023-08-31T10:48:53;100928.75;;;15.82;75.18
69574;BME280;62840;52.366;5.980;2023-08-31T10:51:25;100932.78;;;15.86;75.19
69574;BME280;62840;52.366;5.980;2023-08-31T10:53:52;100923.22;;;15.92;75.40
69574;BME280;62840;52.366;5.980;2023-08-31T10:56:29;100920.06;;;15.96;75.33
69574;BME280;62840;52.366;5.980;2023-08-31T10:58:59;100919.44;;;16.02;75.18
69574;BME280;62840;52.366;5.980;2023-08-31T11:01:54;100930.53;;;16.08;75.45
69574;BME280;62840;52.366;5.980;2023-08-31T11:04:24;100929.22;;;16.12;75.60
69574;BME280;62840;52.366;5.980;2023-08-31T11:07:12;100924.03;;;16.18;75.73
69574;BME280;62840;52.366;5.980;2023-08-31T11:09:40;100918.84;;;16.25;75.36
69574;BME280;62840;52.366;5.980;2023-08-31T11:12:06;100916.50;;;16.30;75.69
69574;BME280;62840;52.366;5.980;2023-08-31T11:14:32;100919.56;;;16.35;76.01
69574;BME280;62840;52.366;5.980;2023-08-31T11:16:59;100915.19;;;16.42;75.88
69574;BME280;62840;52.366;5.980;2023-08-31T11:19:28;100915.38;;;16.49;76.00
69574;BME280;62840;52.366;5.980;2023-08-31T11:21:54;100908.50;;;16.55;75.57
69574;BME280;62840;52.366;5.980;2023-08-31T11:24:20;100916.59;;;16.63;75.31
69574;BME280;62840;52.366;5.980;2023-08-31T11:26:47;100916.28;;;16.66;75.19
69574;BME280;62840;52.366;5.980;2023-08-31T11:29:13;100911.56;;;16.68;75.56
69574;BME280;62840;52.366;5.980;2023-08-31T11:31:39;100908.53;;;16.71;75.23
69574;BME280;62840;52.366;5.980;2023-08-31T11:34:05;100910.25;;;16.72;75.28
69574;BME280;62840;52.366;5.980;2023-08-31T11:36:33;100912.25;;;16.70;75.05
69574;BME280;62840;52.366;5.980;2023-08-31T11:39:00;100923.34;;;16.67;75.29
69574;BME280;62840;52.366;5.980;2023-08-31T11:41:30;100931.06;;;16.62;75.03
69574;BME280;62840;52.366;5.980;2023-08-31T11:43:57;100927.03;;;16.58;74.60
69574;BME280;62840;52.366;5.980;2023-08-31T11:46:23;100938.28;;;16.53;74.84
69574;BME280;62840;52.366;5.980;2023-08-31T11:48:50;100933.06;;;16.52;74.70
69574;BME280;62840;52.366;5.980;2023-08-31T11:51:16;100934.41;;;16.47;74.54
69574;BME280;62840;52.366;5.980;2023-08-31T11:53:45;100933.72;;;16.45;74.68
69574;BME280;62840;52.366;5.980;2023-08-31T11:56:11;100936.44;;;16.45;74.79
69574;BME280;62840;52.366;5.980;2023-08-31T11:58:40;100933.41;;;16.48;74.22
69574;BME280;62840;52.366;5.980;2023-08-31T12:01:06;100934.06;;;16.51;74.67
69574;BME280;62840;52.366;5.980;2023-08-31T12:03:42;100937.13;;;16.56;74.99
69574;BME280;62840;52.366;5.980;2023-08-31T12:06:08;100926.72;;;16.61;74.99
69574;BME280;62840;52.366;5.980;2023-08-31T12:08:36;100931.13;;;16.70;74.73
69574;BME280;62840;52.366;5.980;2023-08-31T12:11:06;100935.66;;;16.78;74.80
69574;BME280;62840;52.366;5.980;2023-08-31T12:13:32;100937.53;;;16.85;74.62
69574;BME280;62840;52.366;5.980;2023-08-31T12:15:58;100938.25;;;16.96;74.35
69574;BME280;62840;52.366;5.980;2023-08-31T12:18:23;100936.22;;;16.98;73.70
69574;BME280;62840;52.366;5.980;2023-08-31T12:20:51;100961.16;;;17.00;73.37
69574;BME280;62840;52.366;5.980;2023-08-31T12:23:17;100972.25;;;16.97;73.02
69574;BME280;62840;52.366;5.980;2023-08-31T12:25:47;100964.47;;;16.85;72.27
69574;BME280;62840;52.366;5.980;2023-08-31T12:28:16;100963.78;;;16.75;72.61
69574;BME280;62840;52.366;5.980;2023-08-31T12:30:45;100963.94;;;16.65;72.69
69574;BME280;62840;52.366;5.980;2023-08-31T12:33:12;100962.38;;;16.55;72.96
69574;BME280;62840;52.366;5.980;2023-08-31T12:35:38;100959.63;;;16.46;73.18
69574;BME280;62840;52.366;5.980;2023-08-31T12:38:04;100963.97;;;16.39;73.44
69574;BME280;62840;52.366;5.980;2023-08-31T12:40:30;100959.25;;;16.33;73.23
69574;BME280;62840;52.366;5.980;2023-08-31T12:42:55;100959.56;;;16.30;73.26
69574;BME280;62840;52.366;5.980;2023-08-31T12:45:24;100966.28;;;16.26;73.40
69574;BME280;62840;52.366;5.980;2023-08-31T12:47:50;100965.59;;;16.24;73.45
69574;BME280;62840;52.366;5.980;2023-08-31T12:50:15;100955.16;;;16.21;73.43
69574;BME280;62840;52.366;5.980;2023-08-31T12:52:41;100953.47;;;16.20;73.94